Time;durP1;ratioP1;P1;durP2;ratioP2;P2;SDS_P1;SDS_P2;PMS_P1;PMS_P2;Temp;Humidity;BMP_temperature;BMP_pressure;BME280_temperature;BME280_humidity;BME280_pressure;Samples;Min_cycle;Max_cycle;Signal;HPM_P1;HPM_P2
2023/10/16 00:00:29;;;;;;;7.82;1.52;;;;;;;;;;10064080;28;20046;-74
2023/10/16 00:05:21;;;;;;;5.43;1.90;;;;;;;;;;10064014;28;20111;-72
2023/10/16 00:10:13;;;;;;;2.25;1.83;;;;;;;;;;10064046;28;20042;-73
2023/10/16 00:15:05;;;;;;;4.30;1.38;;;;;;;;;;10063504;28;20380;-72
2023/10/16 00:19:57;;;;;;;2.10;1.38;;;;;;;;;;10063135;28;20042;-73
2023/10/16 00:24:49;;;;;;;4.38;3.85;;;;;;;;;;10062922;28;20055;-72
2023/10/16 00:29:42;;;;;;;3.42;3.13;;;;;;;;;;10062630;28;20045;-73
2023/10/16 00:34:34;;;;;;;6.15;1.83;;;;;;;;;;10063396;28;20111;-72
2023/10/16 00:39:28;;;;;;;2.67;1.80;;;;;;;;;;10063139;28;20120;-74
2023/10/16 00:44:22;;;;;;;2.70;2.10;;;;;;;;;;10062183;28;20054;-73
2023/10/16 00:49:15;;;;;;;4.15;2.10;;;;;;;;;;10062243;28;20034;-73
2023/10/16 00:54:16;;;;;;;3.60;1.90;;;;;;;;;;10061238;28;20367;-73
2023/10/16 00:59:09;;;;;;;1.05;1.02;;;;;;;;;;10062766;28;20045;-73
2023/10/16 01:04:01;;;;;;;3.42;1.27;;;;;;;;;;10068841;28;20049;-71
2023/10/16 01:08:53;;;;;;;1.00;0.95;;;;;;;;;;10070972;28;20041;-71
2023/10/16 01:13:50;;;;;;;2.22;1.02;;;;;;;;;;10068829;28;20467;-72
2023/10/16 01:18:46;;;;;;;2.25;1.20;;;;;;;;;;10058838;28;20052;-72
2023/10/16 01:23:37;;;;;;;1.27;0.90;;;;;;;;;;10069148;28;20041;-71
2023/10/16 01:28:30;;;;;;;3.90;1.08;;;;;;;;;;10068900;28;20426;-72
2023/10/16 01:33:23;;;;;;;0.85;0.85;;;;;;;;;;10068935;28;20691;-72
2023/10/16 01:38:15;;;;;;;0.82;0.82;;;;;;;;;;10056719;28;20376;-73
2023/10/16 01:43:07;;;;;;;3.90;1.20;;;;;;;;;;10080766;28;20385;-73
2023/10/16 01:48:04;;;;;;;2.67;1.23;;;;;;;;;;10070739;28;20045;-71
2023/10/16 01:52:58;;;;;;;1.65;1.33;;;;;;;;;;10071593;28;20049;-71
2023/10/16 01:57:50;;;;;;;3.67;1.25;;;;;;;;;;10086225;28;20041;-72
2023/10/16 02:02:43;;;;;;;3.83;1.30;;;;;;;;;;10055825;28;20080;-73
2023/10/16 02:07:41;;;;;;;4.55;1.33;;;;;;;;;;10071725;28;20384;-73
2023/10/16 02:12:33;;;;;;;4.00;1.20;;;;;;;;;;10080382;28;20147;-73
2023/10/16 02:17:26;;;;;;;2.20;1.23;;;;;;;;;;10068899;28;20501;-72
2023/10/16 02:22:22;;;;;;;3.50;1.23;;;;;;;;;;10067243;28;20144;-72
2023/10/16 02:27:14;;;;;;;6.43;1.17;;;;;;;;;;10036983;28;20038;-73
2023/10/16 02:32:09;;;;;;;3.33;1.25;;;;;;;;;;10031250;28;20125;-72
2023/10/16 02:37:01;;;;;;;1.50;1.40;;;;;;;;;;10029709;28;20056;-71
2023/10/16 02:41:59;;;;;;;4.65;1.65;;;;;;;;;;10028141;28;20070;-71
2023/10/16 02:46:51;;;;;;;4.60;1.60;;;;;;;;;;10030084;28;20053;-72
2023/10/16 02:51:43;;;;;;;1.27;1.20;;;;;;;;;;10030786;28;20044;-74
2023/10/16 02:56:36;;;;;;;6.07;1.50;;;;;;;;;;10045063;28;20042;-72
2023/10/16 03:01:28;;;;;;;1.40;1.23;;;;;;;;;;10028653;28;20511;-72
2023/10/16 03:06:20;;;;;;;3.13;1.20;;;;;;;;;;10029981;28;20049;-71
2023/10/16 03:11:13;;;;;;;3.58;1.40;;;;;;;;;;10028385;28;20046;-71
2023/10/16 03:16:11;;;;;;;6.32;2.03;;;;;;;;;;10029139;28;20050;-71
2023/10/16 03:26:05;;;;;;;4.45;2.25;;;;;;;;;;10026945;28;20108;-71
2023/10/16 03:31:03;;;;;;;4.22;2.25;;;;;;;;;;10029232;28;20046;-73
2023/10/16 03:35:57;;;;;;;4.10;1.83;;;;;;;;;;10028539;28;20042;-73
2023/10/16 03:40:51;;;;;;;2.72;1.40;;;;;;;;;;10028298;28;20952;-73
2023/10/16 03:45:43;;;;;;;2.05;1.25;;;;;;;;;;10026742;28;22221;-73
2023/10/16 03:50:44;;;;;;;1.98;1.55;;;;;;;;;;10029234;28;20100;-72
2023/10/16 03:55:49;;;;;;;2.55;1.73;;;;;;;;;;10027333;28;20140;-73
2023/10/16 04:00:52;;;;;;;4.20;1.50;;;;;;;;;;10026956;28;20054;-72
2023/10/16 04:05:46;;;;;;;4.25;1.60;;;;;;;;;;10027191;28;20054;-71
2023/10/16 04:10:40;;;;;;;5.38;1.48;;;;;;;;;;10027151;28;20073;-71
2023/10/16 04:20:43;;;;;;;1.70;1.60;;;;;;;;;;10027263;28;20050;-72
2023/10/16 04:25:45;;;;;;;2.10;1.63;;;;;;;;;;10025781;28;20120;-73
2023/10/16 04:30:39;;;;;;;2.78;1.77;;;;;;;;;;10027152;28;20087;-72
2023/10/16 04:45:59;;;;;;;3.78;2.05;;;;;;;;;;10026414;28;20042;-72
2023/10/16 04:51:09;;;;;;;7.32;1.98;;;;;;;;;;10027539;28;20077;-72
2023/10/16 04:56:57;;;;;;;2.75;2.00;;;;;;;;;;10026867;28;20042;-73
2023/10/16 05:06:56;;;;;;;3.50;1.73;;;;;;;;;;10042661;28;20494;-72
2023/10/16 06:14:09;;;;;;;7.57;3.97;;;;;;;;;;10037605;28;20133;-71
2023/10/16 06:14:15;;;;;;;16.52;6.68;;;;;;;;;;10067545;28;20053;-72
2023/10/16 06:19:22;;;;;;;9.18;6.80;;;;;;;;;;10066706;28;20516;-72
2023/10/16 06:29:35;;;;;;;5.35;4.95;;;;;;;;;;10064525;28;20038;-73
2023/10/16 06:34:27;;;;;;;7.28;4.97;;;;;;;;;;10062885;28;20414;-74
2023/10/16 06:39:35;;;;;;;7.28;5.22;;;;;;;;;;10047535;28;20076;-73
2023/10/16 06:44:33;;;;;;;8.85;4.07;;;;;;;;;;10067825;28;20555;-72
2023/10/16 06:49:36;;;;;;;5.00;4.50;;;;;;;;;;10032984;28;20042;-74
2023/10/16 06:54:28;;;;;;;11.32;4.78;;;;;;;;;;10030187;28;20503;-74
2023/10/16 06:59:21;;;;;;;5.65;4.88;;;;;;;;;;10029646;28;20034;-73
2023/10/16 07:04:19;;;;;;;9.05;3.72;;;;;;;;;;10027922;28;20050;-74
2023/10/16 07:09:12;;;;;;;8.30;3.10;;;;;;;;;;10044378;28;20050;-73
2023/10/16 07:14:11;;;;;;;6.07;2.45;;;;;;;;;;10030098;28;20041;-72
2023/10/16 07:19:07;;;;;;;3.67;1.95;;;;;;;;;;10028676;28;20065;-72
2023/10/16 07:23:59;;;;;;;3.80;1.65;;;;;;;;;;10029039;28;20120;-71
2023/10/16 07:28:52;;;;;;;2.83;1.35;;;;;;;;;;10036455;28;20084;-73
2023/10/16 07:33:53;;;;;;;2.35;1.67;;;;;;;;;;10027892;28;20136;-73
2023/10/16 07:38:45;;;;;;;3.03;1.67;;;;;;;;;;10026843;28;20050;-73
2023/10/16 07:43:37;;;;;;;6.43;2.75;;;;;;;;;;10027236;28;20096;-72
2023/10/16 07:48:29;;;;;;;2.47;1.77;;;;;;;;;;10027506;28;20064;-73
2023/10/16 07:53:20;;;;;;;3.40;2.17;;;;;;;;;;10034556;28;20045;-72
2023/10/16 07:58:15;;;;;;;9.15;1.88;;;;;;;;;;10027848;28;20049;-72
2023/10/16 08:03:13;;;;;;;4.25;1.75;;;;;;;;;;10026727;28;20133;-72
2023/10/16 08:08:11;;;;;;;2.67;2.17;;;;;;;;;;10026403;28;20045;-72
2023/10/16 08:13:11;;;;;;;2.35;1.80;;;;;;;;;;10027228;28;20045;-72
2023/10/16 08:18:09;;;;;;;7.28;1.70;;;;;;;;;;10026219;28;20042;-74
2023/10/16 08:23:05;;;;;;;4.45;1.92;;;;;;;;;;10027064;28;20034;-73
2023/10/16 08:28:00;;;;;;;5.22;1.98;;;;;;;;;;10026957;28;20137;-73
2023/10/16 08:33:06;;;;;;;5.20;1.60;;;;;;;;;;10026506;28;20131;-72
2023/10/16 08:37:58;;;;;;;3.20;2.15;;;;;;;;;;10025879;28;20042;-73
2023/10/16 08:43:01;;;;;;;2.80;2.10;;;;;;;;;;10026000;28;20057;-73
2023/10/16 08:47:54;;;;;;;4.60;2.00;;;;;;;;;;10025483;28;20141;-73
2023/10/16 08:52:50;;;;;;;2.13;1.90;;;;;;;;;;10032251;28;20045;-73
2023/10/16 08:57:44;;;;;;;3.65;1.70;;;;;;;;;;10024638;28;20050;-73
2023/10/16 09:02:38;;;;;;;3.90;2.22;;;;;;;;;;10025194;28;20141;-73
2023/10/16 09:07:32;;;;;;;2.92;2.08;;;;;;;;;;10039707;28;20042;-73
2023/10/16 09:12:26;;;;;;;5.53;2.25;;;;;;;;;;10027904;28;20049;-73
2023/10/16 09:17:20;;;;;;;9.43;4.63;;;;;;;;;;10025316;28;20092;-72
2023/10/16 09:22:13;;;;;;;3.50;2.10;;;;;;;;;;10044289;28;20038;-73
2023/10/16 09:27:16;;;;;;;18.58;12.35;;;;;;;;;;10038888;28;20384;-74
2023/10/16 09:32:10;;;;;;;11.32;2.72;;;;;;;;;;10032904;28;20040;-72
2023/10/16 09:37:20;;;;;;;5.72;1.95;;;;;;;;;;10032349;28;20038;-72
2023/10/16 09:42:13;;;;;;;3.78;2.08;;;;;;;;;;10031950;28;20424;-73
2023/10/16 09:47:25;;;;;;;5.05;1.90;;;;;;;;;;10032423;28;20046;-72
2023/10/16 09:52:20;;;;;;;5.75;2.22;;;;;;;;;;10044872;28;20199;-73
2023/10/16 09:57:13;;;;;;;10.73;3.35;;;;;;;;;;10051510;28;20297;-73
2023/10/16 10:02:06;;;;;;;9.43;2.50;;;;;;;;;;10046146;28;20050;-70
2023/10/16 10:07:00;;;;;;;10.90;3.42;;;;;;;;;;10032064;28;20129;-73
2023/10/16 10:12:13;;;;;;;12.88;6.05;;;;;;;;;;10013144;28;20447;-73
2023/10/16 10:17:09;;;;;;;5.20;2.22;;;;;;;;;;10043981;28;20073;-73
2023/10/16 10:22:17;;;;;;;5.25;1.67;;;;;;;;;;10031448;28;20049;-72
2023/10/16 10:27:11;;;;;;;9.75;2.13;;;;;;;;;;10039608;28;20471;-72
2023/10/16 10:32:06;;;;;;;11.07;2.17;;;;;;;;;;10029461;28;20046;-72
2023/10/16 10:36:59;;;;;;;6.47;1.70;;;;;;;;;;10045231;28;20053;-72
2023/10/16 10:42:03;;;;;;;7.85;1.77;;;;;;;;;;10028760;28;20054;-72
2023/10/16 10:46:55;;;;;;;2.45;1.50;;;;;;;;;;10032248;28;20113;-72
2023/10/16 10:51:50;;;;;;;7.68;1.60;;;;;;;;;;10030100;28;20136;-73
2023/10/16 10:56:48;;;;;;;4.50;2.55;;;;;;;;;;10046497;28;20413;-70
2023/10/16 11:01:54;;;;;;;6.53;2.58;;;;;;;;;;10029271;28;20652;-71
2023/10/16 11:06:51;;;;;;;5.43;2.25;;;;;;;;;;10028920;28;20050;-74
2023/10/16 11:11:44;;;;;;;10.23;3.42;;;;;;;;;;10039907;28;20029;-73
2023/10/16 11:16:45;;;;;;;6.03;3.30;;;;;;;;;;10044008;28;20053;-69
2023/10/16 11:21:44;;;;;;;11.00;2.50;;;;;;;;;;10028975;28;20052;-72
2023/10/16 11:26:38;;;;;;;5.68;2.67;;;;;;;;;;10040469;28;20382;-71
2023/10/16 11:31:29;;;;;;;7.38;3.58;;;;;;;;;;10028102;28;20042;-73
2023/10/16 11:36:23;;;;;;;4.65;2.72;;;;;;;;;;10029719;28;20080;-72
2023/10/16 11:41:19;;;;;;;6.95;2.65;;;;;;;;;;10049149;28;20049;-73
2023/10/16 11:51:25;;;;;;;4.25;1.98;;;;;;;;;;10028094;28;20141;-73
2023/10/16 11:56:18;;;;;;;7.70;2.05;;;;;;;;;;10049080;28;20053;-72
2023/10/16 12:01:11;;;;;;;7.22;2.70;;;;;;;;;;10061601;28;20049;-74
2023/10/16 12:06:23;;;;;;;5.40;2.78;;;;;;;;;;10063932;28;20208;-71
2023/10/16 12:11:15;;;;;;;6.80;2.10;;;;;;;;;;10063284;28;20075;-72
2023/10/16 12:16:07;;;;;;;2.45;1.73;;;;;;;;;;10063360;28;20049;-72
2023/10/16 12:21:19;;;;;;;5.32;1.70;;;;;;;;;;10063937;28;20056;-72
2023/10/16 12:26:11;;;;;;;8.07;2.40;;;;;;;;;;10063325;28;20376;-73
2023/10/16 12:31:03;;;;;;;4.45;2.05;;;;;;;;;;10062589;28;20065;-72
2023/10/16 12:35:55;;;;;;;10.18;2.53;;;;;;;;;;10064131;28;20123;-72
2023/10/16 12:40:47;;;;;;;12.90;2.05;;;;;;;;;;10063725;28;20049;-73
2023/10/16 12:45:40;;;;;;;7.95;3.88;;;;;;;;;;10062977;28;20069;-71
2023/10/16 12:50:32;;;;;;;6.13;2.22;;;;;;;;;;10063682;28;20047;-72
2023/10/16 12:55:25;;;;;;;7.07;2.83;;;;;;;;;;10064397;28;20428;-73
2023/10/16 13:00:19;;;;;;;5.57;2.55;;;;;;;;;;10038184;28;20069;-73
2023/10/16 13:05:15;;;;;;;17.20;8.27;;;;;;;;;;10033572;28;20084;-73
2023/10/16 13:10:14;;;;;;;5.85;3.05;;;;;;;;;;10033859;28;20048;-72
2023/10/16 13:15:08;;;;;;;16.05;6.13;;;;;;;;;;10033138;28;20137;-72
2023/10/16 13:20:00;;;;;;;13.13;4.80;;;;;;;;;;10033684;28;20049;-72
2023/10/16 13:24:54;;;;;;;6.65;2.05;;;;;;;;;;10042250;28;20077;-74
2023/10/16 13:29:47;;;;;;;4.85;2.75;;;;;;;;;;10032658;28;20060;-73
2023/10/16 13:34:39;;;;;;;12.73;4.65;;;;;;;;;;10032274;28;20484;-71
2023/10/16 13:39:31;;;;;;;8.80;5.18;;;;;;;;;;10033070;28;20746;-73
2023/10/16 13:44:24;;;;;;;8.85;3.35;;;;;;;;;;10032741;28;20092;-72
2023/10/16 13:49:18;;;;;;;3.42;2.05;;;;;;;;;;10031896;28;20527;-72
2023/10/16 13:54:13;;;;;;;6.38;2.25;;;;;;;;;;10034621;28;20049;-72
2023/10/16 13:59:06;;;;;;;5.00;2.58;;;;;;;;;;10031540;28;20033;-73
2023/10/16 14:03:58;;;;;;;6.88;1.85;;;;;;;;;;10032034;28;20053;-72
2023/10/16 14:08:50;;;;;;;3.90;1.80;;;;;;;;;;10031463;28;20057;-72
2023/10/16 14:13:42;;;;;;;8.90;1.85;;;;;;;;;;10030017;28;20410;-72
2023/10/16 14:18:34;;;;;;;2.53;1.40;;;;;;;;;;10047104;28;20040;-72
2023/10/16 14:23:29;;;;;;;6.20;1.88;;;;;;;;;;10031282;28;20487;-72
2023/10/16 14:28:27;;;;;;;13.55;1.80;;;;;;;;;;10030397;28;20136;-72
2023/10/16 14:33:21;;;;;;;4.20;1.58;;;;;;;;;;10029545;28;20556;-72
2023/10/16 14:38:16;;;;;;;6.43;3.28;;;;;;;;;;10029909;28;20081;-75
2023/10/16 14:43:08;;;;;;;3.63;2.05;;;;;;;;;;10029324;28;20468;-72
2023/10/16 14:48:03;;;;;;;9.05;2.95;;;;;;;;;;10029297;28;20145;-71
2023/10/16 14:52:55;;;;;;;7.25;1.65;;;;;;;;;;10035836;28;20052;-72
2023/10/16 14:57:49;;;;;;;6.50;1.88;;;;;;;;;;10033673;28;20142;-72
2023/10/16 15:03:00;;;;;;;4.90;1.58;;;;;;;;;;10029371;28;20057;-72
2023/10/16 15:07:52;;;;;;;4.85;1.77;;;;;;;;;;10029524;28;20125;-72
2023/10/16 15:12:44;;;;;;;4.43;1.83;;;;;;;;;;10027992;28;20056;-70
2023/10/16 15:17:38;;;;;;;5.20;1.77;;;;;;;;;;10028452;28;20184;-71
2023/10/16 15:22:30;;;;;;;7.05;1.42;;;;;;;;;;10028626;28;20060;-71
2023/10/16 15:27:21;;;;;;;7.28;1.70;;;;;;;;;;10028572;28;20046;-72
2023/10/16 15:32:13;;;;;;;11.98;1.65;;;;;;;;;;10027442;28;20466;-73
2023/10/16 15:37:05;;;;;;;4.45;2.05;;;;;;;;;;10028131;28;20046;-71
2023/10/16 15:42:01;;;;;;;4.38;1.90;;;;;;;;;;10028365;28;20042;-72
2023/10/16 15:46:53;;;;;;;3.47;2.28;;;;;;;;;;10027091;28;20049;-72
2023/10/16 15:51:45;;;;;;;3.25;1.70;;;;;;;;;;10016696;28;20050;-73
2023/10/16 15:56:39;;;;;;;10.52;1.92;;;;;;;;;;10062766;28;20041;-72
2023/10/16 16:01:30;;;;;;;6.50;1.60;;;;;;;;;;10063788;28;20124;-71
2023/10/16 16:06:24;;;;;;;6.15;1.60;;;;;;;;;;10062654;28;20042;-72
2023/10/16 16:11:19;;;;;;;7.82;1.90;;;;;;;;;;10064046;28;20056;-71
2023/10/16 16:16:11;;;;;;;6.20;1.77;;;;;;;;;;10062174;28;20468;-72
2023/10/16 16:21:05;;;;;;;5.15;1.83;;;;;;;;;;10027837;28;20045;-72
2023/10/16 16:25:56;;;;;;;5.53;1.70;;;;;;;;;;10043319;28;20042;-71
2023/10/16 16:30:48;;;;;;;3.90;2.03;;;;;;;;;;10024582;28;20137;-71
2023/10/16 16:35:40;;;;;;;14.35;8.63;;;;;;;;;;10037141;28;20468;-70
2023/10/16 16:40:32;;;;;;;5.32;2.20;;;;;;;;;;10050471;28;20057;-70
2023/10/16 16:45:24;;;;;;;15.05;4.13;;;;;;;;;;10029739;28;20133;-72
2023/10/16 16:50:17;;;;;;;23.15;4.68;;;;;;;;;;10059318;28;20527;-72
2023/10/16 16:55:09;;;;;;;9.85;2.72;;;;;;;;;;10058907;28;20045;-72
2023/10/16 17:00:10;;;;;;;6.35;4.95;;;;;;;;;;10058467;28;20046;-73
2023/10/16 17:05:02;;;;;;;12.52;6.28;;;;;;;;;;10062947;28;20077;-70
2023/10/16 17:09:54;;;;;;;29.10;14.40;;;;;;;;;;10060952;28;20050;-72
2023/10/16 17:14:46;;;;;;;35.05;27.17;;;;;;;;;;10061138;28;20375;-70
2023/10/16 17:19:38;;;;;;;6.72;4.40;;;;;;;;;;10075973;28;20069;-70
2023/10/16 17:24:30;;;;;;;67.50;48.63;;;;;;;;;;10062414;28;20168;-72
2023/10/16 17:29:23;;;;;;;10.38;6.18;;;;;;;;;;10062006;28;20042;-72
2023/10/16 17:34:17;;;;;;;10.38;6.13;;;;;;;;;;10061674;28;20095;-72
2023/10/16 17:39:13;;;;;;;7.85;3.10;;;;;;;;;;10061769;28;20056;-70
2023/10/16 17:44:06;;;;;;;6.78;2.67;;;;;;;;;;10052337;28;20366;-71
2023/10/16 17:48:58;;;;;;;11.48;2.58;;;;;;;;;;10066057;28;20064;-70
2023/10/16 17:53:51;;;;;;;6.47;2.20;;;;;;;;;;10068416;28;20107;-71
2023/10/16 17:58:42;;;;;;;5.18;3.00;;;;;;;;;;10068379;28;20050;-71
2023/10/16 18:03:34;;;;;;;8.13;2.35;;;;;;;;;;10066880;28;20119;-72
2023/10/16 18:08:27;;;;;;;8.73;3.65;;;;;;;;;;10067389;28;20041;-71
2023/10/16 18:13:22;;;;;;;6.72;2.05;;;;;;;;;;10061988;28;20372;-72
2023/10/16 18:18:14;;;;;;;6.88;2.30;;;;;;;;;;10067431;28;20045;-71
2023/10/16 18:23:06;;;;;;;5.85;2.00;;;;;;;;;;10067320;28;20046;-71
2023/10/16 18:28:00;;;;;;;9.07;2.90;;;;;;;;;;10068246;28;20069;-72
2023/10/16 18:32:52;;;;;;;3.78;1.55;;;;;;;;;;10065696;28;20049;-70
2023/10/16 18:37:45;;;;;;;4.55;1.50;;;;;;;;;;10063113;28;20053;-71
2023/10/16 18:42:38;;;;;;;2.08;1.30;;;;;;;;;;10065047;28;20076;-70
2023/10/16 18:47:30;;;;;;;2.25;1.38;;;;;;;;;;10067318;28;20049;-71
2023/10/16 18:52:22;;;;;;;2.35;1.75;;;;;;;;;;10066252;28;20107;-71
2023/10/16 18:57:15;;;;;;;4.97;1.73;;;;;;;;;;10066358;28;20057;-74
2023/10/16 19:02:09;;;;;;;4.50;1.80;;;;;;;;;;10034324;28;20077;-70
2023/10/16 19:07:02;;;;;;;5.10;1.67;;;;;;;;;;10027930;28;20468;-71
2023/10/16 19:11:54;;;;;;;2.65;1.92;;;;;;;;;;10027897;28;20061;-73
2023/10/16 19:16:47;;;;;;;6.47;1.88;;;;;;;;;;10027492;28;20049;-74
2023/10/16 19:21:39;;;;;;;4.45;1.67;;;;;;;;;;10027585;28;20147;-71
2023/10/16 19:26:33;;;;;;;7.20;2.65;;;;;;;;;;10027065;28;20068;-71
2023/10/16 19:31:24;;;;;;;5.43;2.53;;;;;;;;;;10048957;28;20079;-70
2023/10/16 19:36:20;;;;;;;3.40;1.98;;;;;;;;;;10065403;28;20107;-75
2023/10/16 19:41:14;;;;;;;5.30;2.60;;;;;;;;;;10051721;28;20046;-73
2023/10/16 19:46:06;;;;;;;6.75;2.50;;;;;;;;;;10062037;28;20124;-74
2023/10/16 19:50:58;;;;;;;4.70;2.28;;;;;;;;;;10064292;28;20060;-73
2023/10/16 19:55:52;;;;;;;6.18;2.67;;;;;;;;;;10064458;28;20049;-74
2023/10/16 20:00:46;;;;;;;5.53;2.25;;;;;;;;;;10064591;28;20043;-74
2023/10/16 20:05:39;;;;;;;6.25;2.15;;;;;;;;;;10060355;28;20391;-74
2023/10/16 20:10:34;;;;;;;11.13;2.92;;;;;;;;;;10050553;28;20571;-75
2023/10/16 20:15:28;;;;;;;3.00;1.98;;;;;;;;;;10054089;28;20924;-72
2023/10/16 20:20:25;;;;;;;4.15;2.80;;;;;;;;;;10057785;28;20041;-73
2023/10/16 20:25:19;;;;;;;5.07;2.95;;;;;;;;;;10061355;28;20164;-72
2023/10/16 20:30:12;;;;;;;3.70;2.83;;;;;;;;;;10048941;28;20440;-74
2023/10/16 20:35:08;;;;;;;5.28;4.05;;;;;;;;;;10052144;28;20119;-75
2023/10/16 20:40:07;;;;;;;10.50;3.35;;;;;;;;;;10060594;28;20088;-74
2023/10/16 20:45:00;;;;;;;5.35;3.38;;;;;;;;;;10066890;28;20052;-75
2023/10/16 20:49:54;;;;;;;4.82;3.67;;;;;;;;;;10060952;28;20052;-74
2023/10/16 20:54:46;;;;;;;5.20;4.03;;;;;;;;;;10051305;28;20107;-75
2023/10/16 20:59:38;;;;;;;4.88;2.90;;;;;;;;;;10059275;28;20041;-74
2023/10/16 21:04:30;;;;;;;4.72;3.42;;;;;;;;;;10061987;28;20076;-75
2023/10/16 21:09:26;;;;;;;10.38;4.45;;;;;;;;;;10063569;28;20103;-75
2023/10/16 21:14:18;;;;;;;6.72;4.38;;;;;;;;;;10055073;28;20069;-73
2023/10/16 21:19:10;;;;;;;5.20;3.30;;;;;;;;;;10068877;28;20089;-74
2023/10/16 21:24:03;;;;;;;13.18;5.20;;;;;;;;;;10071068;28;20068;-74
2023/10/16 21:28:59;;;;;;;4.20;3.17;;;;;;;;;;10070453;28;20049;-74
2023/10/16 21:33:51;;;;;;;8.32;4.10;;;;;;;;;;10070646;28;20156;-72
2023/10/16 21:38:43;;;;;;;7.10;4.18;;;;;;;;;;10070751;28;20045;-74
2023/10/16 21:43:35;;;;;;;7.22;3.97;;;;;;;;;;10069146;28;20037;-73
2023/10/16 21:48:27;;;;;;;4.50;3.50;;;;;;;;;;10070211;28;20095;-75
2023/10/16 21:53:22;;;;;;;7.57;3.92;;;;;;;;;;10069235;28;20107;-72
2023/10/16 21:58:14;;;;;;;5.20;3.20;;;;;;;;;;10069142;28;20108;-72
2023/10/16 22:03:06;;;;;;;4.70;3.22;;;;;;;;;;10069184;28;20467;-70
2023/10/16 22:07:59;;;;;;;5.03;2.72;;;;;;;;;;10068590;28;20052;-74
2023/10/16 22:12:51;;;;;;;7.32;3.40;;;;;;;;;;10068379;28;20379;-72
2023/10/16 22:17:44;;;;;;;5.75;3.40;;;;;;;;;;10068836;28;20041;-72
2023/10/16 22:22:36;;;;;;;4.15;2.78;;;;;;;;;;10066794;28;20075;-74
2023/10/16 22:27:28;;;;;;;7.32;2.88;;;;;;;;;;10067315;28;20045;-71
2023/10/16 22:32:20;;;;;;;5.18;2.60;;;;;;;;;;10061680;28;20041;-71
2023/10/16 22:37:12;;;;;;;4.40;2.63;;;;;;;;;;10031471;28;20042;-72
2023/10/16 22:42:06;;;;;;;9.43;2.50;;;;;;;;;;10030535;28;20078;-72
2023/10/16 22:46:58;;;;;;;8.32;2.85;;;;;;;;;;10030584;28;20053;-72
2023/10/16 22:51:50;;;;;;;4.22;3.17;;;;;;;;;;10030381;28;20502;-70
2023/10/16 22:56:42;;;;;;;3.20;2.90;;;;;;;;;;10030525;28;20105;-72
2023/10/16 23:01:36;;;;;;;7.57;3.60;;;;;;;;;;10030337;28;20546;-71
2023/10/16 23:06:29;;;;;;;7.57;4.03;;;;;;;;;;10030013;28;20133;-72
2023/10/16 23:11:28;;;;;;;6.40;4.22;;;;;;;;;;10029986;28;20095;-73
2023/10/16 23:16:25;;;;;;;7.25;4.20;;;;;;;;;;10029584;28;20140;-74
2023/10/16 23:21:17;;;;;;;9.02;4.47;;;;;;;;;;10043916;28;20045;-74
2023/10/16 23:26:11;;;;;;;7.78;3.50;;;;;;;;;;10034528;28;20046;-71
2023/10/16 23:31:07;;;;;;;10.35;3.53;;;;;;;;;;10028349;28;20038;-72
2023/10/16 23:36:00;;;;;;;5.13;3.53;;;;;;;;;;10028453;28;20060;-72
2023/10/16 23:41:06;;;;;;;6.00;3.83;;;;;;;;;;10027660;28;20042;-72
2023/10/16 23:45:59;;;;;;;9.30;4.63;;;;;;;;;;10028688;28;20145;-71
2023/10/16 23:50:55;;;;;;;8.52;5.07;;;;;;;;;;10027597;28;20136;-72
2023/10/16 23:55:55;;;;;;;8.25;5.28;;;;;;;;;;10038109;28;20056;-74
